createdAt,value
2018-06-18T00:04:46.455Z,100970
2018-06-18T00:07:12.474Z,100971
2018-06-18T00:09:38.483Z,100971
2018-06-18T00:12:04.495Z,100963
2018-06-18T00:14:30.510Z,100965
2018-06-18T00:16:56.530Z,100973
2018-06-18T00:19:22.561Z,100966
2018-06-18T00:21:48.575Z,100968
2018-06-18T00:24:14.614Z,100971
2018-06-18T00:26:40.610Z,100969
2018-06-18T00:29:06.636Z,100969
2018-06-18T00:31:32.671Z,100971
2018-06-18T00:33:58.719Z,100966
2018-06-18T00:36:24.756Z,100969
2018-06-18T00:38:50.779Z,100969
2018-06-18T00:41:16.805Z,100967
2018-06-18T00:43:42.823Z,100974
2018-06-18T00:46:08.849Z,100972
2018-06-18T00:48:34.847Z,100972
2018-06-18T00:51:00.871Z,100980
2018-06-18T00:53:26.889Z,100981
2018-06-18T00:55:52.914Z,100982
2018-06-18T00:58:19.792Z,100985
2018-06-18T01:00:45.823Z,100982
2018-06-18T01:03:11.831Z,100985
2018-06-18T01:05:37.850Z,100988
2018-06-18T01:08:03.857Z,100986
2018-06-18T01:10:29.896Z,100990
2018-06-18T01:12:55.919Z,100976
2018-06-18T01:15:21.943Z,100978
2018-06-18T01:17:47.961Z,100973
2018-06-18T01:20:14.015Z,100969
2018-06-18T01:22:40.019Z,100966
2018-06-18T01:25:06.128Z,100970
2018-06-18T01:27:32.161Z,100971
2018-06-18T01:29:58.171Z,100971
2018-06-18T01:32:24.193Z,100980
2018-06-18T01:34:50.205Z,100983
2018-06-18T01:37:16.237Z,100994
2018-06-18T01:39:42.239Z,100996
2018-06-18T01:42:08.267Z,100990
2018-06-18T01:44:34.279Z,100985
2018-06-18T01:47:00.297Z,100987
2018-06-18T01:49:26.311Z,100979
2018-06-18T01:51:52.324Z,100982
2018-06-18T01:54:18.325Z,100985
2018-06-18T01:56:44.349Z,100980
2018-06-18T01:59:10.361Z,100983
2018-06-18T02:01:36.390Z,100977
2018-06-18T02:04:02.399Z,100973
2018-06-18T02:06:28.402Z,100975
2018-06-18T02:08:54.431Z,100980
2018-06-18T02:11:20.434Z,100976
2018-06-18T02:13:46.480Z,100982
2018-06-18T02:16:12.493Z,100975
2018-06-18T02:18:38.516Z,100977
2018-06-18T02:21:04.518Z,100975
2018-06-18T02:23:30.573Z,100971
2018-06-18T02:25:56.577Z,100970
2018-06-18T02:28:22.606Z,100981
2018-06-18T02:30:48.625Z,100981
2018-06-18T02:33:14.647Z,100974
2018-06-18T02:35:40.656Z,100966
2018-06-18T02:38:06.665Z,100958
2018-06-18T02:40:32.669Z,100944
2018-06-18T02:42:58.695Z,100947
2018-06-18T02:45:24.704Z,100962
2018-06-18T02:47:50.723Z,100962
2018-06-18T02:50:16.726Z,100954
2018-06-18T02:52:42.747Z,100950
2018-06-18T02:55:08.756Z,100951
2018-06-18T02:57:34.770Z,100964
2018-06-18T03:00:00.789Z,100965
2018-06-18T03:02:26.873Z,100980
2018-06-18T03:04:52.902Z,100983
2018-06-18T03:07:18.922Z,100983
2018-06-18T03:09:44.940Z,100987
2018-06-18T03:12:10.983Z,100984
2018-06-18T03:14:37.058Z,100968
2018-06-18T03:17:03.058Z,100998
2018-06-18T03:19:29.075Z,101011
2018-06-18T03:21:55.095Z,101017
2018-06-18T03:24:21.141Z,101005
2018-06-18T03:26:47.146Z,100996
2018-06-18T03:29:13.173Z,100991
2018-06-18T03:31:39.179Z,100997
2018-06-18T03:34:05.199Z,101004
2018-06-18T03:36:31.207Z,101007
2018-06-18T03:38:57.220Z,100999
2018-06-18T03:41:23.400Z,101010
2018-06-18T03:43:49.602Z,100999
2018-06-18T03:46:15.599Z,100990
2018-06-18T03:48:41.610Z,100996
2018-06-18T03:51:07.639Z,100999
2018-06-18T03:53:33.634Z,101003
2018-06-18T03:55:59.665Z,101000
2018-06-18T03:58:25.716Z,100992
2018-06-18T04:00:51.739Z,101004
2018-06-18T04:03:17.738Z,101012
2018-06-18T04:05:43.755Z,101005
2018-06-18T04:08:09.794Z,101003
2018-06-18T04:10:35.803Z,101005
2018-06-18T04:13:01.806Z,100996
2018-06-18T04:15:27.826Z,100988
2018-06-18T04:17:53.838Z,100987
2018-06-18T04:20:19.861Z,100995
2018-06-18T04:22:45.861Z,101000
2018-06-18T04:25:11.897Z,101006
2018-06-18T04:27:37.910Z,101008
2018-06-18T04:30:03.924Z,101002
2018-06-18T04:32:29.928Z,100998
2018-06-18T04:34:55.947Z,101002
2018-06-18T04:37:21.950Z,101002
2018-06-18T04:39:47.982Z,101002
2018-06-18T04:42:13.987Z,100999
2018-06-18T04:44:40.003Z,101008
2018-06-18T04:47:06.174Z,101004
2018-06-18T04:49:32.181Z,101009
2018-06-18T04:51:58.214Z,101002
2018-06-18T04:54:24.235Z,101001
2018-06-18T04:56:50.246Z,101006
2018-06-18T04:59:16.254Z,101006
2018-06-18T05:01:42.285Z,101007
2018-06-18T05:04:08.354Z,101015
2018-06-18T05:06:34.394Z,101010
2018-06-18T05:09:00.411Z,100999
2018-06-18T05:11:26.504Z,100998
2018-06-18T05:13:52.506Z,101007
2018-06-18T05:16:18.531Z,101009
2018-06-18T05:18:44.554Z,101005
2018-06-18T05:21:10.570Z,101012
2018-06-18T05:23:36.578Z,101016
2018-06-18T05:26:02.598Z,101021
2018-06-18T05:28:28.606Z,101014
2018-06-18T05:30:54.626Z,101011
2018-06-18T05:33:20.650Z,101015
2018-06-18T05:35:46.825Z,101014
2018-06-18T05:38:12.852Z,101013
2018-06-18T05:40:38.852Z,101019
2018-06-18T05:43:04.873Z,101028
2018-06-18T05:45:30.878Z,101034
2018-06-18T05:47:56.894Z,101038
2018-06-18T05:50:23.020Z,101041
2018-06-18T05:52:49.030Z,101033
2018-06-18T05:55:15.035Z,101043
2018-06-18T05:57:41.048Z,101049
2018-06-18T06:00:07.057Z,101046
2018-06-18T06:02:33.079Z,101040
2018-06-18T06:04:59.101Z,101037
2018-06-18T06:07:25.124Z,101044
2018-06-18T06:09:51.132Z,101044
2018-06-18T06:12:17.189Z,101037
2018-06-18T06:14:43.191Z,101038
2018-06-18T06:17:09.214Z,101043
2018-06-18T06:19:35.236Z,101049
2018-06-18T06:22:01.265Z,101040
2018-06-18T06:24:27.290Z,101047
2018-06-18T06:26:53.308Z,101041
2018-06-18T06:29:19.314Z,101040
2018-06-18T06:31:45.337Z,101040
2018-06-18T06:34:11.407Z,101050
2018-06-18T06:36:37.377Z,101046
2018-06-18T06:39:03.407Z,101043
2018-06-18T06:41:29.409Z,101046
2018-06-18T06:43:55.434Z,101043
2018-06-18T06:46:21.458Z,101045
2018-06-18T06:48:47.520Z,101053
2018-06-18T06:51:13.546Z,101055
2018-06-18T06:53:39.579Z,101054
2018-06-18T06:56:05.580Z,101065
2018-06-18T06:58:31.616Z,101066
2018-06-18T07:00:57.626Z,101070
2018-06-18T07:03:23.676Z,101066
2018-06-18T07:05:49.673Z,101067
2018-06-18T07:08:15.686Z,101067
2018-06-18T07:10:41.692Z,101065
2018-06-18T07:13:07.715Z,101077
2018-06-18T07:15:33.706Z,101072
2018-06-18T07:17:59.730Z,101071
2018-06-18T07:20:25.733Z,101076
2018-06-18T07:22:51.748Z,101078
2018-06-18T07:25:17.755Z,101073
2018-06-18T07:27:43.754Z,101069
2018-06-18T07:30:09.772Z,101072
2018-06-18T07:32:35.778Z,101078
2018-06-18T07:35:01.795Z,101082
2018-06-18T07:37:27.798Z,101077
2018-06-18T07:39:53.820Z,101077
2018-06-18T07:42:19.813Z,101075
2018-06-18T07:44:45.834Z,101076
2018-06-18T07:47:11.848Z,101073
2018-06-18T07:49:37.871Z,101070
2018-06-18T07:52:03.878Z,101072
2018-06-18T07:54:29.893Z,101071
2018-06-18T07:56:55.894Z,101064
2018-06-18T07:59:21.907Z,101066
2018-06-18T08:01:47.897Z,101069
2018-06-18T08:04:13.916Z,101065
2018-06-18T08:06:39.922Z,101066
2018-06-18T08:09:05.963Z,101067
2018-06-18T08:11:31.985Z,101073
2018-06-18T08:13:57.986Z,101066
2018-06-18T08:16:24.001Z,101067
2018-06-18T08:18:49.994Z,101068
2018-06-18T08:21:16.010Z,101058
2018-06-18T08:23:42.058Z,101064
2018-06-18T08:26:08.032Z,101064
2018-06-18T08:28:34.041Z,101063
2018-06-18T08:31:00.111Z,101060
2018-06-18T08:33:26.122Z,101065
2018-06-18T08:35:52.135Z,101075
2018-06-18T08:38:18.139Z,101079
2018-06-18T08:40:44.150Z,101081
2018-06-18T08:43:10.154Z,101080
2018-06-18T08:45:36.171Z,101074
2018-06-18T08:48:02.168Z,101081
2018-06-18T08:50:28.202Z,101079
2018-06-18T08:52:54.209Z,101080
2018-06-18T08:55:20.236Z,101079
2018-06-18T08:57:46.290Z,101073
2018-06-18T09:00:12.259Z,101074
2018-06-18T09:02:38.268Z,101074
2018-06-18T09:05:04.266Z,101080
2018-06-18T09:07:30.286Z,101075
2018-06-18T09:09:56.287Z,101073
2018-06-18T09:12:22.318Z,101070
2018-06-18T09:14:48.318Z,101069
2018-06-18T09:17:14.334Z,101074
2018-06-18T09:19:40.329Z,101072
2018-06-18T09:22:06.355Z,101067
2018-06-18T09:24:32.355Z,101065
2018-06-18T09:26:58.369Z,101063
2018-06-18T09:29:24.371Z,101059
2018-06-18T09:31:50.386Z,101060
2018-06-18T09:34:16.386Z,101057
2018-06-18T09:36:42.398Z,101050
2018-06-18T09:39:08.404Z,101052
2018-06-18T09:41:34.428Z,101046
2018-06-18T09:44:00.522Z,101051
2018-06-18T09:46:26.536Z,101047
2018-06-18T09:48:52.538Z,101054
2018-06-18T09:51:18.546Z,101044
2018-06-18T09:53:44.546Z,101049
2018-06-18T09:56:10.604Z,101051
2018-06-18T09:58:36.609Z,101057
2018-06-18T10:01:02.629Z,101054
2018-06-18T10:03:28.642Z,101059
2018-06-18T10:05:54.643Z,101058
2018-06-18T10:08:20.755Z,101061
2018-06-18T10:10:46.684Z,101061
2018-06-18T10:13:12.707Z,101061
2018-06-18T10:15:38.710Z,101053
2018-06-18T10:18:04.713Z,101057
2018-06-18T10:20:30.714Z,101060
2018-06-18T10:22:56.782Z,101046
2018-06-18T10:25:22.783Z,101055
2018-06-18T10:27:48.822Z,101053
2018-06-18T10:30:14.830Z,101055
2018-06-18T10:32:40.849Z,101055
2018-06-18T10:35:06.859Z,101058
2018-06-18T10:37:32.870Z,101056
2018-06-18T10:39:58.870Z,101057
2018-06-18T10:42:24.908Z,101057
2018-06-18T10:44:50.917Z,101060
2018-06-18T10:47:16.914Z,101047
2018-06-18T10:49:42.935Z,101058
2018-06-18T10:52:08.938Z,101059
2018-06-18T10:54:34.957Z,101065
2018-06-18T10:57:00.981Z,101060
2018-06-18T10:59:27.043Z,101056
2018-06-18T11:01:53.050Z,101059
2018-06-18T11:04:19.067Z,101042
2018-06-18T11:06:45.083Z,101047
2018-06-18T11:09:11.122Z,101046
2018-06-18T11:11:37.126Z,101047
2018-06-18T11:14:03.146Z,101052
2018-06-18T11:16:29.337Z,101052
2018-06-18T11:18:55.202Z,101052
2018-06-18T11:21:21.212Z,101057
2018-06-18T11:23:47.237Z,101050
2018-06-18T11:26:13.234Z,101050
2018-06-18T11:28:39.314Z,101046
2018-06-18T11:31:05.302Z,101045
2018-06-18T11:33:31.317Z,101042
2018-06-18T11:36:00.346Z,101036
2018-06-18T11:38:26.347Z,101043
2018-06-18T11:40:52.370Z,101043
2018-06-18T11:43:18.402Z,101034
2018-06-18T11:45:44.468Z,101039
2018-06-18T11:48:10.492Z,101044
2018-06-18T11:50:36.478Z,101039
2018-06-18T11:53:02.487Z,101034
2018-06-18T11:55:28.541Z,101034
2018-06-18T11:57:54.544Z,101042
2018-06-18T12:00:20.609Z,101037
2018-06-18T12:02:46.630Z,101038
2018-06-18T12:05:12.748Z,101038
2018-06-18T12:07:38.756Z,101037
2018-06-18T12:10:04.780Z,101037
2018-06-18T12:12:30.776Z,101039
2018-06-18T12:14:56.799Z,101039
2018-06-18T12:17:22.817Z,101042
2018-06-18T12:19:48.845Z,101041
2018-06-18T12:22:14.868Z,101042
2018-06-18T12:24:40.889Z,101044
2018-06-18T12:27:06.915Z,101045
2018-06-18T12:29:32.922Z,101039
2018-06-18T12:31:58.934Z,101037
2018-06-18T12:34:24.959Z,101029
2018-06-18T12:36:50.982Z,101037
2018-06-18T12:39:16.985Z,101045
2018-06-18T12:41:43.022Z,101042
2018-06-18T12:44:09.038Z,101030
2018-06-18T12:46:35.156Z,101031
2018-06-18T12:49:01.159Z,101037
2018-06-18T12:51:27.187Z,101035
2018-06-18T12:53:53.190Z,101041
2018-06-18T12:56:19.201Z,101043
2018-06-18T12:58:45.211Z,101046
2018-06-18T13:01:11.239Z,101049
2018-06-18T13:03:37.243Z,101051
2018-06-18T13:06:03.264Z,101049
2018-06-18T13:08:29.279Z,101055
2018-06-18T13:10:55.299Z,101050
2018-06-18T13:13:21.309Z,101053
2018-06-18T13:15:47.324Z,101048
2018-06-18T13:18:13.333Z,101056
2018-06-18T13:20:39.347Z,101056
2018-06-18T13:23:05.351Z,101052
2018-06-18T13:25:31.369Z,101052
2018-06-18T13:27:57.376Z,101048
2018-06-18T13:30:23.392Z,101053
2018-06-18T13:32:49.420Z,101050
2018-06-18T13:35:15.434Z,101053
2018-06-18T13:37:41.453Z,101051
2018-06-18T13:40:07.482Z,101044
2018-06-18T13:42:33.499Z,101046
2018-06-18T13:44:59.502Z,101043
2018-06-18T13:47:25.522Z,101050
2018-06-18T13:49:51.535Z,101056
2018-06-18T13:52:17.556Z,101052
2018-06-18T13:54:43.558Z,101050
2018-06-18T13:57:09.585Z,101048
2018-06-18T13:59:35.607Z,101049
2018-06-18T14:02:01.618Z,101049
2018-06-18T14:04:27.622Z,101048
2018-06-18T14:06:53.634Z,101048
2018-06-18T14:09:19.642Z,101051
2018-06-18T14:11:45.682Z,101049
2018-06-18T14:14:11.690Z,101047
2018-06-18T14:16:37.733Z,101048
2018-06-18T14:19:03.730Z,101047
2018-06-18T14:21:29.755Z,101057
2018-06-18T14:23:55.766Z,101052
2018-06-18T14:26:21.787Z,101051
2018-06-18T14:28:47.790Z,101045
2018-06-18T14:31:13.794Z,101039
2018-06-18T14:33:39.793Z,101039
2018-06-18T14:36:05.802Z,101030
2018-06-18T14:38:31.827Z,101029
2018-06-18T14:40:57.826Z,101039
2018-06-18T14:43:23.866Z,101041
2018-06-18T14:45:49.898Z,101039
2018-06-18T14:48:15.944Z,101036
2018-06-18T14:50:41.918Z,101043
2018-06-18T14:53:07.936Z,101037
2018-06-18T14:55:33.935Z,101027
2018-06-18T14:57:59.973Z,101037
2018-06-18T15:00:25.974Z,101033
2018-06-18T15:02:51.989Z,101031
2018-06-18T15:05:18.011Z,101030
2018-06-18T15:07:44.036Z,101036
2018-06-18T15:10:10.058Z,101030
2018-06-18T15:12:36.118Z,101023
2018-06-18T15:15:02.101Z,101024
2018-06-18T15:17:28.106Z,101020
2018-06-18T15:19:54.118Z,101030
2018-06-18T15:22:20.139Z,101027
2018-06-18T15:24:46.159Z,101021
2018-06-18T15:27:12.197Z,101029
2018-06-18T15:29:38.210Z,101034
2018-06-18T15:32:04.336Z,101033
2018-06-18T15:34:30.392Z,101033
2018-06-18T15:36:56.489Z,101030
2018-06-18T15:39:22.521Z,101031
2018-06-18T15:41:48.622Z,101030
2018-06-18T15:44:14.737Z,101026
2018-06-18T15:46:40.679Z,101022
2018-06-18T15:49:06.793Z,101027
2018-06-18T15:51:32.936Z,101029
2018-06-18T15:53:58.960Z,101026
2018-06-18T15:56:25.043Z,101020
2018-06-18T15:58:51.075Z,101018
2018-06-18T16:01:17.100Z,101013
2018-06-18T16:03:43.114Z,101018
2018-06-18T16:06:09.141Z,101017
2018-06-18T16:08:35.170Z,101024
2018-06-18T16:11:01.175Z,101026
2018-06-18T16:13:27.198Z,101020
2018-06-18T16:15:53.336Z,101017
2018-06-18T16:18:19.383Z,101014
2018-06-18T16:20:45.394Z,101020
2018-06-18T16:23:11.441Z,101020
2018-06-18T16:25:37.453Z,101015
2018-06-18T16:28:03.474Z,101015
2018-06-18T16:30:29.497Z,101013
2018-06-18T16:32:55.510Z,101017
2018-06-18T16:35:21.521Z,101024
2018-06-18T16:37:47.834Z,101019
2018-06-18T16:40:13.866Z,101021
2018-06-18T16:42:39.878Z,101029
2018-06-18T16:45:05.885Z,101029
2018-06-18T16:47:31.894Z,101018
2018-06-18T16:49:57.903Z,101018
2018-06-18T16:52:24.011Z,101017
2018-06-18T16:54:50.109Z,101019
2018-06-18T16:57:16.119Z,101020
2018-06-18T16:59:42.129Z,101022
2018-06-18T17:02:08.131Z,101017
2018-06-18T17:04:34.149Z,101021
2018-06-18T17:07:00.163Z,101015
2018-06-18T17:09:26.302Z,101004
2018-06-18T17:11:52.325Z,101004
2018-06-18T17:14:18.427Z,101010
2018-06-18T17:16:44.530Z,101002
2018-06-18T17:19:10.487Z,101003
2018-06-18T17:21:36.502Z,100998
2018-06-18T17:24:02.531Z,101002
2018-06-18T17:26:28.554Z,100998
2018-06-18T17:28:54.574Z,101000
2018-06-18T17:31:20.652Z,101003
2018-06-18T17:33:46.658Z,101000
2018-06-18T17:36:12.681Z,101001
2018-06-18T17:38:38.991Z,101003
2018-06-18T17:41:05.333Z,101001
2018-06-18T17:43:31.387Z,101000
2018-06-18T17:45:57.426Z,101004
2018-06-18T17:48:23.523Z,101005
2018-06-18T17:50:49.495Z,101000
2018-06-18T17:53:15.527Z,100993
2018-06-18T17:55:41.769Z,100994
2018-06-18T17:58:07.843Z,100992
2018-06-18T18:00:33.851Z,100996
2018-06-18T18:02:59.874Z,100994
2018-06-18T18:05:25.886Z,100993
2018-06-18T18:07:51.885Z,100993
2018-06-18T18:10:17.995Z,100990
2018-06-18T18:12:44.057Z,100992
2018-06-18T18:15:10.080Z,101001
2018-06-18T18:17:36.215Z,100997
2018-06-18T18:20:02.311Z,100998
2018-06-18T18:22:28.318Z,100997
2018-06-18T18:24:54.329Z,100992
2018-06-18T18:27:20.338Z,100989
2018-06-18T18:29:46.359Z,100995
2018-06-18T18:32:12.537Z,101005
2018-06-18T18:34:38.770Z,100994
2018-06-18T18:37:04.855Z,101000
2018-06-18T18:39:30.889Z,101002
2018-06-18T18:41:56.898Z,101001
2018-06-18T18:44:22.925Z,101007
2018-06-18T18:46:48.961Z,101004
2018-06-18T18:49:14.975Z,101012
2018-06-18T18:51:40.978Z,101021
2018-06-18T18:54:07.376Z,101010
2018-06-18T18:56:33.383Z,101010
2018-06-18T18:58:59.489Z,101008
2018-06-18T19:01:25.553Z,101005
2018-06-18T19:03:51.565Z,101012
2018-06-18T19:06:17.598Z,101016
2018-06-18T19:08:43.605Z,101010
2018-06-18T19:11:09.629Z,101011
2018-06-18T19:13:35.635Z,101016
2018-06-18T19:16:01.701Z,101014
2018-06-18T19:18:27.713Z,101019
2018-06-18T19:20:53.730Z,100995
2018-06-18T19:23:19.740Z,101019
2018-06-18T19:25:45.796Z,101019
2018-06-18T19:28:11.794Z,101024
2018-06-18T19:30:37.810Z,101019
2018-06-18T19:33:03.811Z,101028
2018-06-18T19:35:29.874Z,101021
2018-06-18T19:37:56.091Z,101022
2018-06-18T19:40:22.160Z,101035
2018-06-18T19:42:48.246Z,101027
2018-06-18T19:45:15.319Z,101033
2018-06-18T19:47:41.321Z,101034
2018-06-18T19:50:07.337Z,101041
2018-06-18T19:52:33.445Z,101044
2018-06-18T19:54:59.449Z,101049
2018-06-18T19:57:25.467Z,101056
2018-06-18T19:59:51.486Z,101049
2018-06-18T20:02:17.509Z,101053
2018-06-18T20:04:43.524Z,101060
2018-06-18T20:07:09.705Z,101060
2018-06-18T20:09:35.718Z,101054
2018-06-18T20:12:01.844Z,101058
2018-06-18T20:14:27.845Z,101062
2018-06-18T20:16:53.858Z,101073
2018-06-18T20:19:19.862Z,101069
2018-06-18T20:21:45.876Z,101070
2018-06-18T20:24:11.891Z,101074
2018-06-18T20:26:37.911Z,101081
2018-06-18T20:29:03.914Z,101081
2018-06-18T20:31:29.946Z,101086
2018-06-18T20:33:55.942Z,101074
2018-06-18T20:36:21.959Z,101073
2018-06-18T20:38:48.042Z,101083
2018-06-18T20:41:14.057Z,101085
2018-06-18T20:43:40.057Z,101077
2018-06-18T20:46:06.071Z,101080
2018-06-18T20:48:32.080Z,101082
2018-06-18T20:50:58.095Z,101083
2018-06-18T20:53:24.114Z,101085
2018-06-18T20:55:50.119Z,101088
2018-06-18T20:58:16.154Z,101094
2018-06-18T21:00:42.154Z,101093
2018-06-18T21:03:08.166Z,101086
2018-06-18T21:05:34.177Z,101094
2018-06-18T21:08:00.196Z,101096
2018-06-18T21:10:26.199Z,101093
2018-06-18T21:12:52.219Z,101105
2018-06-18T21:15:18.222Z,101105
2018-06-18T21:17:44.235Z,101110
2018-06-18T21:20:10.235Z,101109
2018-06-18T21:22:36.266Z,101106
2018-06-18T21:25:02.461Z,101111
2018-06-18T21:27:28.502Z,101105
2018-06-18T21:29:54.506Z,101103
2018-06-18T21:32:20.527Z,101103
2018-06-18T21:34:46.535Z,101118
2018-06-18T21:37:12.544Z,101102
2018-06-18T21:39:38.545Z,101104
2018-06-18T21:42:04.558Z,101104
2018-06-18T21:44:30.590Z,101106
2018-06-18T21:46:56.608Z,101101
2018-06-18T21:49:22.642Z,101102
2018-06-18T21:51:48.643Z,101096
2018-06-18T21:54:14.680Z,101099
2018-06-18T21:56:40.708Z,101093
2018-06-18T21:59:06.722Z,101093
2018-06-18T22:01:32.734Z,101087
2018-06-18T22:03:58.745Z,101086
2018-06-18T22:06:24.771Z,101089
2018-06-18T22:08:50.791Z,101086
2018-06-18T22:11:16.794Z,101093
2018-06-18T22:13:42.824Z,101089
2018-06-18T22:16:08.846Z,101091
2018-06-18T22:18:34.879Z,101087
2018-06-18T22:21:00.903Z,101085
2018-06-18T22:23:26.909Z,101082
2018-06-18T22:25:52.934Z,101089
2018-06-18T22:28:18.943Z,101087
2018-06-18T22:30:45.062Z,101089
2018-06-18T22:33:11.108Z,101084
2018-06-18T22:35:37.130Z,101086
2018-06-18T22:38:03.143Z,101080
2018-06-18T22:40:29.178Z,101083
2018-06-18T22:42:55.184Z,101090
2018-06-18T22:45:21.212Z,101085
2018-06-18T22:47:47.231Z,101083
2018-06-18T22:50:13.281Z,101084
2018-06-18T22:52:39.278Z,101081
2018-06-18T22:55:05.322Z,101091
2018-06-18T22:57:31.321Z,101094
2018-06-18T22:59:57.347Z,101099
2018-06-18T23:02:23.351Z,101102
2018-06-18T23:04:49.375Z,101089
2018-06-18T23:07:15.388Z,101100
2018-06-18T23:09:41.415Z,101091
2018-06-18T23:12:07.426Z,101094
2018-06-18T23:14:33.449Z,101092
2018-06-18T23:16:59.462Z,101093
2018-06-18T23:19:25.470Z,101096
2018-06-18T23:21:51.486Z,101100
2018-06-18T23:24:17.492Z,101091
2018-06-18T23:26:43.515Z,101101
2018-06-18T23:29:09.520Z,101109
2018-06-18T23:31:35.544Z,101103
2018-06-18T23:34:01.543Z,101110
2018-06-18T23:36:27.562Z,101112
2018-06-18T23:38:53.571Z,101113
2018-06-18T23:41:19.603Z,101115
2018-06-18T23:43:45.607Z,101112
2018-06-18T23:46:11.630Z,101116
2018-06-18T23:48:37.630Z,101111
2018-06-18T23:51:03.729Z,101114
2018-06-18T23:53:29.770Z,101113
2018-06-18T23:55:55.806Z,101110
2018-06-18T23:58:21.801Z,101109
